DNAA/ABV METAR and TAF weather

Enter ICAO airport designator
Station Type Date Time Source
DNAA METAR 2022/01/26 07:00 UTC NOAA

DNAA 260700Z 09003KT 6000 NSC 19/07 Q1012 NOSIG


Station Type Date Time Source
DNAA Decoded METAR 2022/01/26 07:00 UTC NOAA

Station name not available
Jan 26, 2022 - 02:00 AM EST / 2022.01.26 0700 UTC
Wind: from the E (090 degrees) at 3 MPH (3 KT):0
Visibility: 3 mile(s):0
Temperature: 66 F (19 C)
Dew Point: 44 F (7 C)
Relative Humidity: 45%
Pressure (altimeter): 29.88 in. Hg (1012 hPa)
ob: DNAA 260700Z 09003KT 6000 NSC 19/07 Q1012 NOSIG
cycle: 7

Station Type Date Time Source
DNAA TAF 2022/01/24 00:21 UTC NOAA

TAF DNAA 242300Z 2500/2606 29003KT 8000 NSC
BECMG 2501/2503 06010KT
TEMPO 2505/2511 5000 HZ PROB30 2507/2510 3000
BECMG 2512/2514 16010KT

Example: see airport list